LTBULTBA

Guest
Details From LTBU - CORLU
To LTBA - Istanbul Ataturk
Flight Number -
Tags decoded
Created
Modified
Stats Distance 42 nm / 78 km
Max Altitude 0 ft / 0 m
Waypoints 3
Social Downloads 3
Likes 0
Share

Download

Looking for another format? Having issues loading an existing format? Contact us
Advertisement - Login to hide

Notes

Requested: LTBU CRL LTBA

Route

LTBU CRL LTBA

ID Type Via Altitude (ft/m) Position (lat/lon) Dist (leg/tot) Name
O LTBU APT - 0 / 0 41.13825 / 27.91894 - / 0 nm CORLU
CRL NDB - 0 / 0 41.15222 / 27.93833 1 / 1 nm CORLU NDB
O LTBA APT - 0 / 0 40.97914 / 28.81283 40 / 42 nm Istanbul Ataturk

Altitude Profile

Advertisement - Login to hide

LTBU

Details ICAO LTBU (TEQ)
Name CORLU
Region Turkey
Timezone Europe/Istanbul (UTC+3.0)
Stats Elevation 574 ft / 175 m (AMSL)
Location 41.138300° 27.918900°
Runways 1
Magnetic Variation 5.708° E

METAR

LTBU 261820Z 03010KT CAVOK 23/18 Q1018 RMK RWY22 01007KT

Decode

TAF

TAF LTBU 261640Z 2618/2718 01010KT CAVOK

Decode

Departure Runways

ID Width Length Bearing (true/mag) Surface Threshold Overrun Markings Lighting
05 148 ft / 45 m 9,899 ft / 3,017 m 49.36° / 43.65° CONCRETE 0 ft / 0 m 458 ft / 140 m PREC-APP EDGE THRESHOLD SALS
23 148 ft / 45 m 9,899 ft / 3,017 m 229.37° / 223.66° CONCRETE 0 ft / 0 m 495 ft / 151 m APP EDGE THRESHOLD

LTBA

Details ICAO LTBA (ISL)
Name Istanbul Ataturk
Region Turkey
Timezone Europe/Istanbul (UTC+3.0)
Stats Elevation 163 ft / 50 m (AMSL)
Location 40.976100° 28.814200°
Runways 1
Magnetic Variation 5.789° E

METAR

LTBA 261820Z 04010KT CAVOK 26/20 Q1018 NOSIG RMK RWY23 05009KT

Decode

TAF

TAF LTBA 261040Z 2612/2718 03015KT 9999 SCT040 BECMG 2612/2615 CAVOK BECMG 2616/2619 03005KT BECMG 2704/2707 02015KT SCT040 BECMG 2711/2714 CAVOK BECMG 2715/2718 02005KT

Decode

Destination Runways

ID Width Length Bearing (true/mag) Surface Threshold Overrun Markings Lighting
05 197 ft / 60 m 8,513 ft / 2,595 m 58.45° / 52.66° ASPHALT 492 ft / 150 m 207 ft / 63 m PREC-APP CENTERLINE EDGE THRESHOLD ALSF-II TDZ REIL-OMNI
23 197 ft / 60 m 8,513 ft / 2,595 m 238.47° / 232.68° ASPHALT 0 ft / 0 m 197 ft / 60 m PREC-APP CENTERLINE EDGE THRESHOLD ALSF-II TDZ REIL-OMNI

Approach Navaids

Runway Type Ident Frequency Range Bearing (true/mag) Slope Elevation
05 LOC-ILS IIST 110.30 MHz 18 nm / 33 km 58.46° / 52.67 ° - 163 ft / 50 m (AMSL)
05 GS IIST 110.30 MHz 10 nm / 19 km 58.46° / 52.67 ° 3.00° 163 ft / 50 m (AMSL)
05 MM MM - - 58.48° / 52.69 ° - 163 ft / 50 m (AMSL)
05 DME IIST 110.30 MHz 18 nm / 33 km - - 82 ft / 25 m (AMSL)
23 LOC-ILS IATA 111.90 MHz 18 nm / 33 km 238.46° / 232.67 ° - 163 ft / 50 m (AMSL)
23 GS IATA 111.90 MHz 10 nm / 19 km 238.46° / 232.67 ° 3.20° 163 ft / 50 m (AMSL)
23 MM MM - - 238.48° / 232.69 ° - 163 ft / 50 m (AMSL)
23 DME IATA 111.90 MHz 18 nm / 33 km - - 163 ft / 50 m (AMSL)
23 OM OM - - 238.48° / 232.69 ° - 163 ft / 50 m (AMSL)

Popular Alternatives